sensor_id;sensor_type;location;lat;lon;timestamp;P1;durP1;ratioP1;P2;durP2;ratioP2
10481;SDS011;5288;42.334;23.876;2022-08-01T00:01:16;18.30;;;16.70;;
10481;SDS011;5288;42.334;23.876;2022-08-01T00:03:44;17.70;;;16.20;;
10481;SDS011;5288;42.334;23.876;2022-08-01T00:06:12;18.67;;;16.83;;
10481;SDS011;5288;42.334;23.876;2022-08-01T00:08:39;18.73;;;17.13;;
10481;SDS011;5288;42.334;23.876;2022-08-01T00:11:08;19.90;;;17.87;;
10481;SDS011;5288;42.334;23.876;2022-08-01T00:13:36;18.57;;;16.87;;
10481;SDS011;5288;42.334;23.876;2022-08-01T00:16:03;18.37;;;16.80;;
10481;SDS011;5288;42.334;23.876;2022-08-01T00:18:30;17.97;;;16.00;;
10481;SDS011;5288;42.334;23.876;2022-08-01T00:20:57;17.87;;;16.27;;
10481;SDS011;5288;42.334;23.876;2022-08-01T00:23:24;17.23;;;15.63;;
10481;SDS011;5288;42.334;23.876;2022-08-01T00:25:52;16.53;;;15.03;;
10481;SDS011;5288;42.334;23.876;2022-08-01T00:28:20;16.17;;;14.87;;
10481;SDS011;5288;42.334;23.876;2022-08-01T00:30:48;16.13;;;14.83;;
10481;SDS011;5288;42.334;23.876;2022-08-01T00:33:15;16.57;;;15.07;;
10481;SDS011;5288;42.334;23.876;2022-08-01T00:35:42;15.27;;;13.97;;
10481;SDS011;5288;42.334;23.876;2022-08-01T00:38:09;16.50;;;15.00;;
10481;SDS011;5288;42.334;23.876;2022-08-01T00:40:36;14.93;;;13.73;;
10481;SDS011;5288;42.334;23.876;2022-08-01T00:43:03;15.60;;;14.23;;
10481;SDS011;5288;42.334;23.876;2022-08-01T00:45:32;14.47;;;13.07;;
10481;SDS011;5288;42.334;23.876;2022-08-01T00:47:59;14.77;;;13.23;;
10481;SDS011;5288;42.334;23.876;2022-08-01T00:50:26;15.13;;;13.67;;
10481;SDS011;5288;42.334;23.876;2022-08-01T00:52:53;14.47;;;13.27;;
10481;SDS011;5288;42.334;23.876;2022-08-01T00:55:21;14.53;;;13.30;;
10481;SDS011;5288;42.334;23.876;2022-08-01T00:57:49;13.60;;;12.47;;
10481;SDS011;5288;42.334;23.876;2022-08-01T01:00:16;12.73;;;11.63;;
10481;SDS011;5288;42.334;23.876;2022-08-01T01:02:45;14.13;;;12.93;;
10481;SDS011;5288;42.334;23.876;2022-08-01T01:05:12;14.10;;;12.70;;
10481;SDS011;5288;42.334;23.876;2022-08-01T01:07:40;14.13;;;12.60;;
10481;SDS011;5288;42.334;23.876;2022-08-01T01:10:15;14.13;;;12.50;;
10481;SDS011;5288;42.334;23.876;2022-08-01T01:12:49;13.73;;;12.53;;
10481;SDS011;5288;42.334;23.876;2022-08-01T01:15:22;13.90;;;12.80;;
10481;SDS011;5288;42.334;23.876;2022-08-01T01:17:55;14.50;;;13.13;;
10481;SDS011;5288;42.334;23.876;2022-08-01T01:20:27;13.83;;;12.60;;
10481;SDS011;5288;42.334;23.876;2022-08-01T01:23:05;13.47;;;12.07;;
10481;SDS011;5288;42.334;23.876;2022-08-01T01:25:47;14.57;;;13.07;;
10481;SDS011;5288;42.334;23.876;2022-08-01T01:28:30;16.63;;;13.27;;
10481;SDS011;5288;42.334;23.876;2022-08-01T01:31:03;14.23;;;12.93;;
10481;SDS011;5288;42.334;23.876;2022-08-01T01:33:34;16.40;;;13.17;;
10481;SDS011;5288;42.334;23.876;2022-08-01T01:36:03;12.80;;;11.67;;
10481;SDS011;5288;42.334;23.876;2022-08-01T01:38:36;12.53;;;11.23;;
10481;SDS011;5288;42.334;23.876;2022-08-01T01:41:07;12.43;;;11.33;;
10481;SDS011;5288;42.334;23.876;2022-08-01T01:43:36;11.90;;;10.90;;
10481;SDS011;5288;42.334;23.876;2022-08-01T01:46:07;12.20;;;11.20;;
10481;SDS011;5288;42.334;23.876;2022-08-01T01:48:37;12.43;;;11.33;;
10481;SDS011;5288;42.334;23.876;2022-08-01T01:51:06;12.23;;;10.63;;
10481;SDS011;5288;42.334;23.876;2022-08-01T01:53:34;12.00;;;10.77;;
10481;SDS011;5288;42.334;23.876;2022-08-01T01:56:03;10.90;;;9.90;;
10481;SDS011;5288;42.334;23.876;2022-08-01T01:58:30;11.33;;;10.23;;
10481;SDS011;5288;42.334;23.876;2022-08-01T02:00:59;11.93;;;10.87;;
10481;SDS011;5288;42.334;23.876;2022-08-01T02:03:30;11.77;;;10.57;;
10481;SDS011;5288;42.334;23.876;2022-08-01T02:06:01;11.60;;;10.57;;
10481;SDS011;5288;42.334;23.876;2022-08-01T02:08:30;11.10;;;10.10;;
10481;SDS011;5288;42.334;23.876;2022-08-01T02:10:59;11.77;;;10.57;;
10481;SDS011;5288;42.334;23.876;2022-08-01T02:13:47;12.30;;;9.67;;
10481;SDS011;5288;42.334;23.876;2022-08-01T02:16:19;11.20;;;10.30;;
10481;SDS011;5288;42.334;23.876;2022-08-01T02:18:50;11.60;;;10.60;;
10481;SDS011;5288;42.334;23.876;2022-08-01T02:21:19;11.17;;;10.17;;
10481;SDS011;5288;42.334;23.876;2022-08-01T02:23:50;11.60;;;10.67;;
10481;SDS011;5288;42.334;23.876;2022-08-01T02:26:19;11.80;;;10.73;;
10481;SDS011;5288;42.334;23.876;2022-08-01T02:28:50;12.33;;;11.13;;
10481;SDS011;5288;42.334;23.876;2022-08-01T02:31:22;11.47;;;10.37;;
10481;SDS011;5288;42.334;23.876;2022-08-01T02:33:53;12.10;;;11.00;;
10481;SDS011;5288;42.334;23.876;2022-08-01T02:36:24;14.33;;;11.20;;
10481;SDS011;5288;42.334;23.876;2022-08-01T02:38:53;11.27;;;10.27;;
10481;SDS011;5288;42.334;23.876;2022-08-01T02:41:22;13.03;;;10.93;;
10481;SDS011;5288;42.334;23.876;2022-08-01T02:43:53;10.67;;;9.77;;
10481;SDS011;5288;42.334;23.876;2022-08-01T02:46:26;11.83;;;10.63;;
10481;SDS011;5288;42.334;23.876;2022-08-01T02:49:02;11.93;;;10.07;;
10481;SDS011;5288;42.334;23.876;2022-08-01T02:51:31;11.33;;;10.27;;
10481;SDS011;5288;42.334;23.876;2022-08-01T02:54:01;10.50;;;9.53;;
10481;SDS011;5288;42.334;23.876;2022-08-01T02:56:31;10.30;;;9.40;;
10481;SDS011;5288;42.334;23.876;2022-08-01T02:59:03;11.03;;;9.90;;
10481;SDS011;5288;42.334;23.876;2022-08-01T03:01:32;10.07;;;9.13;;
10481;SDS011;5288;42.334;23.876;2022-08-01T03:04:02;10.27;;;8.87;;
10481;SDS011;5288;42.334;23.876;2022-08-01T03:06:31;9.53;;;8.73;;
10481;SDS011;5288;42.334;23.876;2022-08-01T03:08:58;8.97;;;8.17;;
10481;SDS011;5288;42.334;23.876;2022-08-01T03:11:28;10.50;;;8.33;;
10481;SDS011;5288;42.334;23.876;2022-08-01T03:13:58;9.13;;;8.30;;
10481;SDS011;5288;42.334;23.876;2022-08-01T03:16:28;9.43;;;8.10;;
10481;SDS011;5288;42.334;23.876;2022-08-01T03:18:58;8.30;;;7.60;;
10481;SDS011;5288;42.334;23.876;2022-08-01T03:21:30;9.20;;;7.50;;
10481;SDS011;5288;42.334;23.876;2022-08-01T03:23:59;12.83;;;7.87;;
10481;SDS011;5288;42.334;23.876;2022-08-01T03:26:30;9.13;;;6.97;;
10481;SDS011;5288;42.334;23.876;2022-08-01T03:29:02;11.00;;;7.37;;
10481;SDS011;5288;42.334;23.876;2022-08-01T03:31:32;27.13;;;8.83;;
10481;SDS011;5288;42.334;23.876;2022-08-01T03:34:03;9.40;;;6.67;;
10481;SDS011;5288;42.334;23.876;2022-08-01T03:36:31;6.90;;;6.20;;
10481;SDS011;5288;42.334;23.876;2022-08-01T03:39:00;7.63;;;6.53;;
10481;SDS011;5288;42.334;23.876;2022-08-01T03:41:32;10.17;;;6.93;;
10481;SDS011;5288;42.334;23.876;2022-08-01T03:44:05;7.87;;;6.53;;
10481;SDS011;5288;42.334;23.876;2022-08-01T03:46:39;7.53;;;6.10;;
10481;SDS011;5288;42.334;23.876;2022-08-01T03:49:14;13.13;;;5.73;;
10481;SDS011;5288;42.334;23.876;2022-08-01T03:51:44;5.50;;;4.13;;
10481;SDS011;5288;42.334;23.876;2022-08-01T03:54:14;5.03;;;4.17;;
10481;SDS011;5288;42.334;23.876;2022-08-01T03:56:43;6.43;;;3.93;;
10481;SDS011;5288;42.334;23.876;2022-08-01T03:59:14;5.37;;;4.27;;
10481;SDS011;5288;42.334;23.876;2022-08-01T04:01:43;4.30;;;3.20;;
10481;SDS011;5288;42.334;23.876;2022-08-01T04:04:13;3.40;;;3.10;;
10481;SDS011;5288;42.334;23.876;2022-08-01T04:06:40;5.33;;;3.10;;
10481;SDS011;5288;42.334;23.876;2022-08-01T04:09:09;4.80;;;2.40;;
10481;SDS011;5288;42.334;23.876;2022-08-01T04:11:37;3.10;;;2.80;;
10481;SDS011;5288;42.334;23.876;2022-08-01T04:14:04;7.27;;;3.40;;
10481;SDS011;5288;42.334;23.876;2022-08-01T04:16:31;7.10;;;2.80;;
10481;SDS011;5288;42.334;23.876;2022-08-01T04:18:59;2.90;;;2.60;;
10481;SDS011;5288;42.334;23.876;2022-08-01T04:21:28;4.80;;;2.27;;
10481;SDS011;5288;42.334;23.876;2022-08-01T04:23:59;7.60;;;3.50;;
10481;SDS011;5288;42.334;23.876;2022-08-01T04:26:30;3.13;;;2.37;;
10481;SDS011;5288;42.334;23.876;2022-08-01T04:28:59;4.30;;;2.13;;
10481;SDS011;5288;42.334;23.876;2022-08-01T04:31:29;2.60;;;2.40;;
10481;SDS011;5288;42.334;23.876;2022-08-01T04:33:57;2.43;;;2.20;;
10481;SDS011;5288;42.334;23.876;2022-08-01T04:36:29;2.53;;;2.33;;
10481;SDS011;5288;42.334;23.876;2022-08-01T04:39:03;2.97;;;2.67;;
10481;SDS011;5288;42.334;23.876;2022-08-01T04:41:34;3.10;;;2.20;;
10481;SDS011;5288;42.334;23.876;2022-08-01T04:44:04;2.43;;;2.10;;
10481;SDS011;5288;42.334;23.876;2022-08-01T04:46:31;3.37;;;2.13;;
10481;SDS011;5288;42.334;23.876;2022-08-01T04:49:02;4.67;;;2.60;;
10481;SDS011;5288;42.334;23.876;2022-08-01T04:51:33;5.40;;;3.50;;
10481;SDS011;5288;42.334;23.876;2022-08-01T04:54:00;3.83;;;3.23;;
10481;SDS011;5288;42.334;23.876;2022-08-01T04:56:27;4.17;;;2.43;;
10481;SDS011;5288;42.334;23.876;2022-08-01T04:58:55;2.73;;;2.53;;
10481;SDS011;5288;42.334;23.876;2022-08-01T05:01:36;2.70;;;2.40;;
10481;SDS011;5288;42.334;23.876;2022-08-01T05:04:03;7.83;;;2.60;;
10481;SDS011;5288;42.334;23.876;2022-08-01T05:06:31;3.83;;;2.40;;
10481;SDS011;5288;42.334;23.876;2022-08-01T05:08:59;4.40;;;2.33;;
10481;SDS011;5288;42.334;23.876;2022-08-01T05:11:26;5.43;;;2.50;;
10481;SDS011;5288;42.334;23.876;2022-08-01T05:13:53;3.67;;;3.33;;
10481;SDS011;5288;42.334;23.876;2022-08-01T05:16:20;5.73;;;4.80;;
10481;SDS011;5288;42.334;23.876;2022-08-01T05:18:48;6.17;;;4.20;;
10481;SDS011;5288;42.334;23.876;2022-08-01T05:21:15;5.37;;;4.87;;
10481;SDS011;5288;42.334;23.876;2022-08-01T05:23:43;3.77;;;3.47;;
10481;SDS011;5288;42.334;23.876;2022-08-01T05:26:10;4.10;;;2.60;;
10481;SDS011;5288;42.334;23.876;2022-08-01T05:28:38;3.50;;;3.00;;
10481;SDS011;5288;42.334;23.876;2022-08-01T05:31:06;6.90;;;4.33;;
10481;SDS011;5288;42.334;23.876;2022-08-01T05:33:33;6.70;;;2.57;;
10481;SDS011;5288;42.334;23.876;2022-08-01T05:36:00;3.67;;;2.27;;
10481;SDS011;5288;42.334;23.876;2022-08-01T05:38:27;5.10;;;2.30;;
10481;SDS011;5288;42.334;23.876;2022-08-01T05:40:56;5.17;;;1.90;;
10481;SDS011;5288;42.334;23.876;2022-08-01T05:43:23;2.40;;;2.20;;
10481;SDS011;5288;42.334;23.876;2022-08-01T05:45:50;4.37;;;2.20;;
10481;SDS011;5288;42.334;23.876;2022-08-01T05:48:17;8.40;;;3.37;;
10481;SDS011;5288;42.334;23.876;2022-08-01T05:50:44;2.53;;;2.33;;
10481;SDS011;5288;42.334;23.876;2022-08-01T05:53:14;6.03;;;2.03;;
10481;SDS011;5288;42.334;23.876;2022-08-01T05:55:41;2.90;;;2.10;;
10481;SDS011;5288;42.334;23.876;2022-08-01T05:58:10;3.33;;;2.20;;
10481;SDS011;5288;42.334;23.876;2022-08-01T06:00:38;4.17;;;2.57;;
10481;SDS011;5288;42.334;23.876;2022-08-01T06:03:05;7.60;;;2.50;;
10481;SDS011;5288;42.334;23.876;2022-08-01T06:05:32;5.73;;;2.57;;
10481;SDS011;5288;42.334;23.876;2022-08-01T06:08:01;2.30;;;2.10;;
10481;SDS011;5288;42.334;23.876;2022-08-01T06:10:28;3.90;;;2.30;;
10481;SDS011;5288;42.334;23.876;2022-08-01T06:12:56;3.27;;;2.27;;
10481;SDS011;5288;42.334;23.876;2022-08-01T06:15:24;3.10;;;2.50;;
10481;SDS011;5288;42.334;23.876;2022-08-01T06:17:51;2.87;;;2.13;;
10481;SDS011;5288;42.334;23.876;2022-08-01T06:20:18;9.07;;;2.60;;
10481;SDS011;5288;42.334;23.876;2022-08-01T06:22:46;5.80;;;4.13;;
10481;SDS011;5288;42.334;23.876;2022-08-01T06:25:13;7.23;;;2.40;;
10481;SDS011;5288;42.334;23.876;2022-08-01T06:27:40;4.50;;;2.47;;
10481;SDS011;5288;42.334;23.876;2022-08-01T06:30:08;5.63;;;2.60;;
10481;SDS011;5288;42.334;23.876;2022-08-01T06:32:37;2.40;;;2.20;;
10481;SDS011;5288;42.334;23.876;2022-08-01T06:35:04;3.07;;;2.50;;
10481;SDS011;5288;42.334;23.876;2022-08-01T06:37:32;3.77;;;2.47;;
10481;SDS011;5288;42.334;23.876;2022-08-01T06:40:00;4.63;;;2.10;;
10481;SDS011;5288;42.334;23.876;2022-08-01T06:42:27;4.60;;;4.20;;
10481;SDS011;5288;42.334;23.876;2022-08-01T06:44:56;6.27;;;4.10;;
10481;SDS011;5288;42.334;23.876;2022-08-01T06:47:23;11.63;;;8.00;;
10481;SDS011;5288;42.334;23.876;2022-08-01T06:49:52;10.73;;;6.57;;
10481;SDS011;5288;42.334;23.876;2022-08-01T06:52:19;3.23;;;2.93;;
10481;SDS011;5288;42.334;23.876;2022-08-01T06:54:46;3.30;;;2.40;;
10481;SDS011;5288;42.334;23.876;2022-08-01T06:57:13;3.87;;;2.70;;
10481;SDS011;5288;42.334;23.876;2022-08-01T06:59:40;4.40;;;2.30;;
10481;SDS011;5288;42.334;23.876;2022-08-01T07:02:08;4.67;;;2.60;;
10481;SDS011;5288;42.334;23.876;2022-08-01T07:04:36;5.73;;;2.83;;
10481;SDS011;5288;42.334;23.876;2022-08-01T07:07:04;2.63;;;2.43;;
10481;SDS011;5288;42.334;23.876;2022-08-01T07:09:32;5.20;;;2.50;;
10481;SDS011;5288;42.334;23.876;2022-08-01T07:11:59;3.77;;;2.73;;
10481;SDS011;5288;42.334;23.876;2022-08-01T07:14:26;5.63;;;2.47;;
10481;SDS011;5288;42.334;23.876;2022-08-01T07:16:53;14.97;;;3.80;;
10481;SDS011;5288;42.334;23.876;2022-08-01T07:19:21;3.67;;;2.47;;
10481;SDS011;5288;42.334;23.876;2022-08-01T07:21:48;4.90;;;3.47;;
10481;SDS011;5288;42.334;23.876;2022-08-01T07:24:16;3.77;;;2.80;;
10481;SDS011;5288;42.334;23.876;2022-08-01T07:26:50;6.30;;;3.03;;
10481;SDS011;5288;42.334;23.876;2022-08-01T07:29:19;2.83;;;2.60;;
10481;SDS011;5288;42.334;23.876;2022-08-01T07:31:47;2.73;;;2.40;;
10481;SDS011;5288;42.334;23.876;2022-08-01T07:34:14;5.53;;;2.40;;
10481;SDS011;5288;42.334;23.876;2022-08-01T07:36:41;5.17;;;2.90;;
10481;SDS011;5288;42.334;23.876;2022-08-01T07:39:09;4.53;;;2.67;;
10481;SDS011;5288;42.334;23.876;2022-08-01T07:41:37;2.77;;;2.47;;
10481;SDS011;5288;42.334;23.876;2022-08-01T07:44:05;2.83;;;2.63;;
10481;SDS011;5288;42.334;23.876;2022-08-01T07:46:32;3.43;;;2.83;;
10481;SDS011;5288;42.334;23.876;2022-08-01T07:48:59;8.23;;;3.70;;
10481;SDS011;5288;42.334;23.876;2022-08-01T07:51:27;5.73;;;2.57;;
10481;SDS011;5288;42.334;23.876;2022-08-01T07:53:54;7.83;;;4.10;;
10481;SDS011;5288;42.334;23.876;2022-08-01T07:56:21;7.30;;;5.60;;
10481;SDS011;5288;42.334;23.876;2022-08-01T07:58:52;7.90;;;4.67;;
10481;SDS011;5288;42.334;23.876;2022-08-01T08:01:19;5.13;;;4.63;;
10481;SDS011;5288;42.334;23.876;2022-08-01T08:03:46;3.07;;;2.30;;
10481;SDS011;5288;42.334;23.876;2022-08-01T08:06:13;3.77;;;2.47;;
10481;SDS011;5288;42.334;23.876;2022-08-01T08:08:40;4.93;;;3.10;;
10481;SDS011;5288;42.334;23.876;2022-08-01T08:11:07;3.60;;;3.20;;
10481;SDS011;5288;42.334;23.876;2022-08-01T08:13:34;5.17;;;2.97;;
10481;SDS011;5288;42.334;23.876;2022-08-01T08:16:04;3.50;;;2.80;;
10481;SDS011;5288;42.334;23.876;2022-08-01T08:18:31;3.37;;;2.40;;
10481;SDS011;5288;42.334;23.876;2022-08-01T08:20:58;2.47;;;2.27;;
10481;SDS011;5288;42.334;23.876;2022-08-01T08:23:25;2.80;;;2.60;;
10481;SDS011;5288;42.334;23.876;2022-08-01T08:26:10;8.20;;;3.13;;
10481;SDS011;5288;42.334;23.876;2022-08-01T08:28:37;4.67;;;3.30;;
10481;SDS011;5288;42.334;23.876;2022-08-01T08:31:05;6.37;;;2.90;;
10481;SDS011;5288;42.334;23.876;2022-08-01T08:33:33;2.60;;;2.40;;
10481;SDS011;5288;42.334;23.876;2022-08-01T08:36:00;6.23;;;2.53;;
10481;SDS011;5288;42.334;23.876;2022-08-01T08:38:27;2.50;;;2.30;;
10481;SDS011;5288;42.334;23.876;2022-08-01T08:40:54;5.17;;;2.60;;
10481;SDS011;5288;42.334;23.876;2022-08-01T08:43:22;5.00;;;2.53;;
10481;SDS011;5288;42.334;23.876;2022-08-01T08:45:51;2.40;;;2.20;;
10481;SDS011;5288;42.334;23.876;2022-08-01T08:48:21;6.30;;;1.90;;
10481;SDS011;5288;42.334;23.876;2022-08-01T08:50:48;4.33;;;2.60;;
10481;SDS011;5288;42.334;23.876;2022-08-01T08:53:17;7.20;;;2.60;;
10481;SDS011;5288;42.334;23.876;2022-08-01T08:55:45;2.50;;;2.10;;
10481;SDS011;5288;42.334;23.876;2022-08-01T08:58:14;4.03;;;2.30;;
10481;SDS011;5288;42.334;23.876;2022-08-01T09:00:44;3.60;;;2.40;;
10481;SDS011;5288;42.334;23.876;2022-08-01T09:03:12;3.30;;;2.47;;
10481;SDS011;5288;42.334;23.876;2022-08-01T09:05:40;2.83;;;2.10;;
10481;SDS011;5288;42.334;23.876;2022-08-01T09:08:08;3.53;;;2.30;;
10481;SDS011;5288;42.334;23.876;2022-08-01T09:10:35;2.80;;;2.10;;
10481;SDS011;5288;42.334;23.876;2022-08-01T09:13:03;3.47;;;2.37;;
10481;SDS011;5288;42.334;23.876;2022-08-01T09:15:39;2.47;;;2.10;;
10481;SDS011;5288;42.334;23.876;2022-08-01T09:18:08;3.40;;;2.10;;
10481;SDS011;5288;42.334;23.876;2022-08-01T09:20:54;2.30;;;2.20;;
10481;SDS011;5288;42.334;23.876;2022-08-01T09:23:35;2.47;;;1.90;;
10481;SDS011;5288;42.334;23.876;2022-08-01T09:26:05;2.67;;;2.00;;
10481;SDS011;5288;42.334;23.876;2022-08-01T09:28:32;2.70;;;1.90;;
10481;SDS011;5288;42.334;23.876;2022-08-01T09:31:07;2.83;;;2.20;;
10481;SDS011;5288;42.334;23.876;2022-08-01T09:33:48;2.50;;;2.00;;
10481;SDS011;5288;42.334;23.876;2022-08-01T09:36:21;2.83;;;2.40;;
10481;SDS011;5288;42.334;23.876;2022-08-01T09:38:53;2.50;;;2.30;;
10481;SDS011;5288;42.334;23.876;2022-08-01T09:41:28;5.13;;;2.43;;
10481;SDS011;5288;42.334;23.876;2022-08-01T09:43:57;3.73;;;2.30;;
10481;SDS011;5288;42.334;23.876;2022-08-01T09:46:24;4.90;;;1.80;;
10481;SDS011;5288;42.334;23.876;2022-08-01T09:48:56;2.60;;;2.40;;
10481;SDS011;5288;42.334;23.876;2022-08-01T09:51:29;2.93;;;2.30;;
10481;SDS011;5288;42.334;23.876;2022-08-01T09:53:58;5.03;;;2.30;;
10481;SDS011;5288;42.334;23.876;2022-08-01T09:56:37;5.47;;;2.70;;
10481;SDS011;5288;42.334;23.876;2022-08-01T09:59:07;4.13;;;2.90;;
10481;SDS011;5288;42.334;23.876;2022-08-01T10:01:45;5.67;;;3.13;;
10481;SDS011;5288;42.334;23.876;2022-08-01T10:04:14;5.60;;;3.17;;
10481;SDS011;5288;42.334;23.876;2022-08-01T10:06:44;3.30;;;2.67;;
10481;SDS011;5288;42.334;23.876;2022-08-01T10:09:14;3.97;;;2.70;;
10481;SDS011;5288;42.334;23.876;2022-08-01T10:11:53;4.57;;;2.87;;
10481;SDS011;5288;42.334;23.876;2022-08-01T10:14:24;3.67;;;2.90;;
10481;SDS011;5288;42.334;23.876;2022-08-01T10:16:59;4.63;;;3.20;;
10481;SDS011;5288;42.334;23.876;2022-08-01T10:19:34;2.57;;;2.37;;
10481;SDS011;5288;42.334;23.876;2022-08-01T10:22:07;2.90;;;2.40;;
10481;SDS011;5288;42.334;23.876;2022-08-01T10:24:45;5.17;;;2.80;;
10481;SDS011;5288;42.334;23.876;2022-08-01T10:27:14;2.80;;;2.60;;
10481;SDS011;5288;42.334;23.876;2022-08-01T10:29:46;3.03;;;2.67;;
10481;SDS011;5288;42.334;23.876;2022-08-01T10:32:16;3.23;;;2.77;;
10481;SDS011;5288;42.334;23.876;2022-08-01T10:34:45;4.90;;;2.63;;
10481;SDS011;5288;42.334;23.876;2022-08-01T10:37:14;3.10;;;2.90;;
10481;SDS011;5288;42.334;23.876;2022-08-01T10:39:42;3.00;;;2.70;;
10481;SDS011;5288;42.334;23.876;2022-08-01T10:42:11;3.17;;;2.53;;
10481;SDS011;5288;42.334;23.876;2022-08-01T10:44:38;3.67;;;2.90;;
10481;SDS011;5288;42.334;23.876;2022-08-01T10:47:12;4.50;;;2.42;;
10481;SDS011;5288;42.334;23.876;2022-08-01T10:49:41;4.78;;;2.67;;
10481;SDS011;5288;42.334;23.876;2022-08-01T10:52:16;2.50;;;2.30;;
10481;SDS011;5288;42.334;23.876;2022-08-01T10:54:44;3.25;;;2.38;;
10481;SDS011;5288;42.334;23.876;2022-08-01T10:57:12;4.68;;;2.55;;
10481;SDS011;5288;42.334;23.876;2022-08-01T10:59:47;4.32;;;3.03;;
10481;SDS011;5288;42.334;23.876;2022-08-01T11:05:01;3.78;;;2.70;;
10481;SDS011;5288;42.334;23.876;2022-08-01T11:07:42;3.70;;;2.47;;
10481;SDS011;5288;42.334;23.876;2022-08-01T11:10:16;3.20;;;2.88;;
10481;SDS011;5288;42.334;23.876;2022-08-01T11:12:49;3.20;;;2.40;;
10481;SDS011;5288;42.334;23.876;2022-08-01T11:15:18;3.03;;;2.58;;
10481;SDS011;5288;42.334;23.876;2022-08-01T11:17:53;2.58;;;2.38;;
10481;SDS011;5288;42.334;23.876;2022-08-01T11:20:21;3.42;;;2.60;;
10481;SDS011;5288;42.334;23.876;2022-08-01T11:26:08;2.97;;;2.67;;
10481;SDS011;5288;42.334;23.876;2022-08-01T11:28:37;3.35;;;2.38;;
10481;SDS011;5288;42.334;23.876;2022-08-01T11:33:55;4.45;;;2.30;;
10481;SDS011;5288;42.334;23.876;2022-08-01T11:36:22;2.40;;;2.10;;
10481;SDS011;5288;42.334;23.876;2022-08-01T11:41:38;3.28;;;2.47;;
10481;SDS011;5288;42.334;23.876;2022-08-01T11:44:06;2.70;;;2.50;;
10481;SDS011;5288;42.334;23.876;2022-08-01T11:46:48;2.53;;;2.30;;
10481;SDS011;5288;42.334;23.876;2022-08-01T11:49:27;4.25;;;3.95;;
10481;SDS011;5288;42.334;23.876;2022-08-01T11:52:24;4.10;;;2.50;;
10481;SDS011;5288;42.334;23.876;2022-08-01T11:54:55;2.88;;;2.67;;
10481;SDS011;5288;42.334;23.876;2022-08-01T11:57:24;4.75;;;2.50;;
10481;SDS011;5288;42.334;23.876;2022-08-01T11:59:56;4.93;;;2.30;;
10481;SDS011;5288;42.334;23.876;2022-08-01T12:02:25;3.08;;;2.15;;
10481;SDS011;5288;42.334;23.876;2022-08-01T12:04:54;4.47;;;2.50;;
10481;SDS011;5288;42.334;23.876;2022-08-01T12:07:22;3.33;;;3.03;;
10481;SDS011;5288;42.334;23.876;2022-08-01T12:09:57;4.05;;;2.70;;
10481;SDS011;5288;42.334;23.876;2022-08-01T12:12:27;2.95;;;2.50;;
10481;SDS011;5288;42.334;23.876;2022-08-01T12:14:55;3.72;;;2.53;;
10481;SDS011;5288;42.334;23.876;2022-08-01T12:17:33;4.32;;;2.40;;
10481;SDS011;5288;42.334;23.876;2022-08-01T12:20:02;2.40;;;2.20;;
10481;SDS011;5288;42.334;23.876;2022-08-01T12:22:31;3.83;;;2.33;;
10481;SDS011;5288;42.334;23.876;2022-08-01T12:25:06;2.72;;;2.38;;
10481;SDS011;5288;42.334;23.876;2022-08-01T12:27:34;4.53;;;2.50;;
10481;SDS011;5288;42.334;23.876;2022-08-01T12:30:02;3.25;;;2.10;;
10481;SDS011;5288;42.334;23.876;2022-08-01T12:32:33;4.07;;;2.40;;
10481;SDS011;5288;42.334;23.876;2022-08-01T12:35:02;3.35;;;2.05;;
10481;SDS011;5288;42.334;23.876;2022-08-01T12:37:31;4.03;;;2.75;;
10481;SDS011;5288;42.334;23.876;2022-08-01T12:40:06;2.67;;;2.13;;
10481;SDS011;5288;42.334;23.876;2022-08-01T12:42:42;5.03;;;2.17;;
10481;SDS011;5288;42.334;23.876;2022-08-01T12:45:11;5.38;;;2.20;;
10481;SDS011;5288;42.334;23.876;2022-08-01T12:47:40;2.75;;;2.20;;
10481;SDS011;5288;42.334;23.876;2022-08-01T12:50:10;2.45;;;2.25;;
10481;SDS011;5288;42.334;23.876;2022-08-01T12:52:39;2.25;;;2.05;;
10481;SDS011;5288;42.334;23.876;2022-08-01T12:55:11;3.15;;;2.20;;
10481;SDS011;5288;42.334;23.876;2022-08-01T12:57:43;2.72;;;2.22;;
10481;SDS011;5288;42.334;23.876;2022-08-01T13:00:19;6.72;;;2.00;;
10481;SDS011;5288;42.334;23.876;2022-08-01T13:02:48;3.60;;;2.08;;
10481;SDS011;5288;42.334;23.876;2022-08-01T13:05:16;2.72;;;1.95;;
10481;SDS011;5288;42.334;23.876;2022-08-01T13:07:46;6.30;;;2.47;;
10481;SDS011;5288;42.334;23.876;2022-08-01T13:10:26;3.65;;;2.50;;
10481;SDS011;5288;42.334;23.876;2022-08-01T13:12:55;2.45;;;2.03;;
10481;SDS011;5288;42.334;23.876;2022-08-01T13:15:25;4.07;;;2.28;;
10481;SDS011;5288;42.334;23.876;2022-08-01T13:17:56;9.15;;;3.30;;
10481;SDS011;5288;42.334;23.876;2022-08-01T13:20:31;3.30;;;2.13;;
10481;SDS011;5288;42.334;23.876;2022-08-01T13:23:10;2.00;;;1.90;;
10481;SDS011;5288;42.334;23.876;2022-08-01T13:25:50;3.08;;;2.08;;
10481;SDS011;5288;42.334;23.876;2022-08-01T13:28:20;3.38;;;2.13;;
10481;SDS011;5288;42.334;23.876;2022-08-01T13:30:52;2.25;;;1.90;;
10481;SDS011;5288;42.334;23.876;2022-08-01T13:33:20;5.70;;;2.28;;
10481;SDS011;5288;42.334;23.876;2022-08-01T13:35:49;2.58;;;2.35;;
10481;SDS011;5288;42.334;23.876;2022-08-01T13:38:17;4.97;;;2.20;;
10481;SDS011;5288;42.334;23.876;2022-08-01T13:40:44;4.55;;;2.40;;
10481;SDS011;5288;42.334;23.876;2022-08-01T13:43:13;2.25;;;2.05;;
10481;SDS011;5288;42.334;23.876;2022-08-01T13:45:40;3.13;;;2.38;;
10481;SDS011;5288;42.334;23.876;2022-08-01T13:48:08;2.85;;;2.30;;
10481;SDS011;5288;42.334;23.876;2022-08-01T13:50:35;2.00;;;1.90;;
10481;SDS011;5288;42.334;23.876;2022-08-01T13:53:02;2.08;;;1.98;;
10481;SDS011;5288;42.334;23.876;2022-08-01T13:55:29;4.95;;;2.38;;
10481;SDS011;5288;42.334;23.876;2022-08-01T13:57:58;3.63;;;2.40;;
10481;SDS011;5288;42.334;23.876;2022-08-01T14:00:26;3.83;;;2.05;;
10481;SDS011;5288;42.334;23.876;2022-08-01T14:02:53;2.72;;;1.98;;
10481;SDS011;5288;42.334;23.876;2022-08-01T14:05:20;2.10;;;2.00;;
10481;SDS011;5288;42.334;23.876;2022-08-01T14:07:48;2.22;;;2.03;;
10481;SDS011;5288;42.334;23.876;2022-08-01T14:10:15;2.47;;;2.13;;
10481;SDS011;5288;42.334;23.876;2022-08-01T14:12:42;2.28;;;2.05;;
10481;SDS011;5288;42.334;23.876;2022-08-01T14:15:09;5.15;;;2.28;;
10481;SDS011;5288;42.334;23.876;2022-08-01T14:17:38;2.83;;;2.40;;
10481;SDS011;5288;42.334;23.876;2022-08-01T14:20:06;3.45;;;2.20;;
10481;SDS011;5288;42.334;23.876;2022-08-01T14:22:34;6.85;;;2.30;;
10481;SDS011;5288;42.334;23.876;2022-08-01T14:25:01;4.35;;;2.20;;
10481;SDS011;5288;42.334;23.876;2022-08-01T14:27:28;3.20;;;2.10;;
10481;SDS011;5288;42.334;23.876;2022-08-01T14:29:56;3.22;;;2.95;;
10481;SDS011;5288;42.334;23.876;2022-08-01T14:32:23;3.35;;;2.30;;
10481;SDS011;5288;42.334;23.876;2022-08-01T14:34:51;3.72;;;2.55;;
10481;SDS011;5288;42.334;23.876;2022-08-01T14:37:18;11.98;;;4.05;;
10481;SDS011;5288;42.334;23.876;2022-08-01T14:39:45;3.70;;;2.35;;
10481;SDS011;5288;42.334;23.876;2022-08-01T14:42:13;2.70;;;2.50;;
10481;SDS011;5288;42.334;23.876;2022-08-01T14:44:40;4.60;;;2.60;;
10481;SDS011;5288;42.334;23.876;2022-08-01T14:47:07;2.70;;;2.50;;
10481;SDS011;5288;42.334;23.876;2022-08-01T14:49:34;2.28;;;2.10;;
10481;SDS011;5288;42.334;23.876;2022-08-01T14:52:02;3.45;;;2.20;;
10481;SDS011;5288;42.334;23.876;2022-08-01T14:54:29;3.65;;;2.80;;
10481;SDS011;5288;42.334;23.876;2022-08-01T14:56:56;2.38;;;2.03;;
10481;SDS011;5288;42.334;23.876;2022-08-01T14:59:24;4.97;;;2.20;;
10481;SDS011;5288;42.334;23.876;2022-08-01T15:01:51;2.60;;;2.38;;
10481;SDS011;5288;42.334;23.876;2022-08-01T15:04:18;3.13;;;2.30;;
10481;SDS011;5288;42.334;23.876;2022-08-01T15:07:03;4.50;;;2.40;;
10481;SDS011;5288;42.334;23.876;2022-08-01T15:09:30;4.75;;;2.72;;